Time;durP1;ratioP1;P1;durP2;ratioP2;P2;SDS_P1;SDS_P2;PMS_P1;PMS_P2;Temp;Humidity;BMP_temperature;BMP_pressure;BME280_temperature;BME280_humidity;BME280_pressure;Samples;Min_cycle;Max_cycle;Signal;HPM_P1;HPM_P2
2022/07/24 00:00:31;;;;;;;8.55;7.03;;;;;;;15.04;97.63;101825.56;1048098;28;20872;-80
2022/07/24 00:01:02;;;;;;;7.72;6.88;;;;;;;15.10;97.53;101822.81;1052403;28;20044;-81
2022/07/24 00:01:34;;;;;;;9.90;7.43;;;;;;;15.08;97.21;101826.78;1054335;28;20039;-80
2022/07/24 00:02:06;;;;;;;7.53;6.85;;;;;;;15.11;96.64;101827.16;1047775;28;20044;-80
2022/07/24 00:02:38;;;;;;;8.05;7.35;;;;;;;15.26;96.84;101825.94;1047684;28;20036;-81
2022/07/24 00:03:09;;;;;;;7.93;7.15;;;;;;;15.33;96.30;101824.00;1044275;28;20051;-80
2022/07/24 00:03:41;;;;;;;7.32;6.65;;;;;;;15.39;95.75;101817.75;1048219;28;20089;-80
2022/07/24 00:04:14;;;;;;;7.70;6.43;;;;;;;15.42;95.42;101822.69;1055382;28;20035;-80
2022/07/24 00:04:46;;;;;;;8.52;7.43;;;;;;;15.37;95.53;101814.50;1048549;28;20107;-81
2022/07/24 00:05:19;;;;;;;7.78;6.85;;;;;;;15.46;95.54;101813.94;1043314;28;20108;-80
2022/07/24 00:05:51;;;;;;;7.72;7.03;;;;;;;15.38;95.21;101810.75;1046044;28;20072;-80
2022/07/24 00:06:22;;;;;;;7.60;6.85;;;;;;;15.40;95.71;101814.03;1047742;28;20047;-80
2022/07/24 00:06:54;;;;;;;6.95;6.45;;;;;;;15.43;95.30;101818.94;1043875;28;20040;-80
2022/07/24 00:07:25;;;;;;;8.70;7.90;;;;;;;15.35;95.21;101817.41;1043503;28;20045;-80
2022/07/24 00:07:57;;;;;;;8.15;7.32;;;;;;;15.26;95.07;101812.53;1044062;28;20041;-80
2022/07/24 00:08:28;;;;;;;7.88;6.95;;;;;;;15.27;95.45;101811.47;1048404;28;20036;-80
2022/07/24 00:09:00;;;;;;;8.05;6.90;;;;;;;15.23;95.95;101821.03;1048068;28;20037;-80
2022/07/24 00:09:33;;;;;;;7.45;6.82;;;;;;;15.26;96.29;101816.03;1043512;28;20047;-80
2022/07/24 00:10:05;;;;;;;7.50;6.82;;;;;;;15.20;95.57;101813.44;1043726;28;20037;-80
2022/07/24 00:10:37;;;;;;;8.07;7.28;;;;;;;15.17;95.79;101819.25;1040241;28;20045;-80
2022/07/24 00:11:09;;;;;;;6.95;6.35;;;;;;;15.23;96.06;101807.59;1046873;28;20036;-80
2022/07/24 00:11:40;;;;;;;8.48;6.75;;;;;;;15.29;95.71;101807.53;1049420;28;20050;-80
2022/07/24 00:12:12;;;;;;;7.20;6.40;;;;;;;15.33;95.43;101824.00;1044198;28;20037;-80
2022/07/24 00:12:43;;;;;;;7.85;7.15;;;;;;;15.37;95.30;101811.81;1042644;28;20059;-80
2022/07/24 00:13:15;;;;;;;10.43;7.25;;;;;;;15.40;94.91;101817.53;1043937;28;20044;-80
2022/07/24 00:13:47;;;;;;;7.13;6.35;;;;;;;15.47;94.97;101812.09;1043575;28;20062;-80
2022/07/24 00:14:18;;;;;;;7.30;6.70;;;;;;;15.50;94.31;101808.94;1044835;28;20041;-80
2022/07/24 00:14:50;;;;;;;10.05;6.82;;;;;;;15.50;94.70;101808.94;1052117;28;20040;-80
2022/07/24 00:15:21;;;;;;;7.82;6.93;;;;;;;15.51;94.19;101807.09;1043597;28;20047;-80
2022/07/24 00:15:53;;;;;;;12.43;6.53;;;;;;;15.49;94.50;101804.63;1043179;28;20435;-80
2022/07/24 00:16:25;;;;;;;8.20;6.78;;;;;;;15.45;94.12;101811.50;1044196;28;20075;-80
2022/07/24 00:16:57;;;;;;;8.45;7.57;;;;;;;15.48;93.76;101811.03;1048262;28;20052;-80
2022/07/24 00:17:28;;;;;;;7.40;6.78;;;;;;;15.50;94.52;101803.56;1044137;28;20045;-80
2022/07/24 00:18:00;;;;;;;7.93;6.50;;;;;;;15.55;94.07;101809.09;1042274;28;20037;-80
2022/07/24 00:18:32;;;;;;;7.18;6.55;;;;;;;15.56;93.47;101805.34;1043442;28;20048;-80
2022/07/24 00:19:03;;;;;;;11.43;7.57;;;;;;;15.56;93.78;101809.91;1044101;28;20122;-80
2022/07/24 00:19:36;;;;;;;6.95;6.35;;;;;;;15.60;93.73;101814.63;1048274;28;20040;-81
2022/07/24 00:20:08;;;;;;;12.43;7.53;;;;;;;15.65;93.37;101812.13;1051920;28;20043;-81
2022/07/24 00:20:40;;;;;;;9.23;6.97;;;;;;;15.66;93.54;101812.94;1048237;28;20048;-81
2022/07/24 00:21:11;;;;;;;6.97;6.45;;;;;;;15.65;92.83;101812.13;1050162;28;20494;-81
2022/07/24 00:21:43;;;;;;;7.05;6.38;;;;;;;15.66;93.02;101808.38;1049128;28;20130;-81
2022/07/24 00:22:15;;;;;;;7.43;6.72;;;;;;;15.57;93.05;101809.69;1043407;28;20037;-81
2022/07/24 00:22:47;;;;;;;8.05;6.65;;;;;;;15.43;93.17;101802.84;1046783;28;20045;-81
2022/07/24 00:23:18;;;;;;;7.15;6.45;;;;;;;15.43;93.84;101809.03;1051941;28;20043;-81
2022/07/24 00:23:50;;;;;;;11.00;7.13;;;;;;;15.49;93.69;101807.31;1048126;28;20040;-81
2022/07/24 00:24:22;;;;;;;7.35;6.55;;;;;;;15.45;93.94;101811.50;1052276;28;20048;-81
2022/07/24 00:24:53;;;;;;;7.32;6.63;;;;;;;15.42;94.08;101803.88;1041461;28;20407;-81
2022/07/24 00:25:25;;;;;;;7.35;6.75;;;;;;;15.45;93.87;101806.13;1047531;28;20036;-81
2022/07/24 00:25:57;;;;;;;7.00;6.30;;;;;;;15.36;93.94;101808.31;1043856;28;20519;-81
2022/07/24 00:26:31;;;;;;;8.18;7.00;;;;;;;15.36;94.03;101808.31;1039789;28;20040;-81
2022/07/24 00:27:03;;;;;;;9.05;7.32;;;;;;;15.25;94.24;101810.88;1035364;28;20109;-81
2022/07/24 00:27:34;;;;;;;7.30;6.60;;;;;;;15.21;94.72;101809.69;1036986;28;20054;-81
2022/07/24 00:28:06;;;;;;;7.50;6.75;;;;;;;15.20;94.94;101808.06;1044649;28;20038;-81
2022/07/24 00:28:39;;;;;;;10.23;6.05;;;;;;;15.26;94.94;101809.84;1044278;28;20483;-81
2022/07/24 00:29:11;;;;;;;7.43;6.72;;;;;;;15.33;94.91;101807.91;1043872;28;20047;-81
2022/07/24 00:29:42;;;;;;;11.52;7.40;;;;;;;15.36;94.59;101808.31;1048076;28;20183;-81
2022/07/24 00:30:14;;;;;;;9.48;6.82;;;;;;;15.40;94.59;101808.66;1043430;28;20091;-81
2022/07/24 00:30:46;;;;;;;7.50;6.78;;;;;;;15.36;94.17;101812.84;1045440;28;20040;-81
2022/07/24 00:31:18;;;;;;;9.38;7.30;;;;;;;15.31;93.86;101804.63;1052382;28;20059;-81
2022/07/24 00:31:50;;;;;;;8.98;6.82;;;;;;;15.34;94.24;101810.38;1055316;27;20146;-81
2022/07/24 00:32:22;;;;;;;7.53;6.95;;;;;;;15.42;93.56;101806.56;1056110;27;20118;-81
2022/07/24 00:32:53;;;;;;;7.53;6.45;;;;;;;15.43;93.48;101808.22;1043855;28;20041;-81
2022/07/24 00:33:25;;;;;;;7.07;6.47;;;;;;;15.33;93.67;101811.41;1037893;28;20054;-82
2022/07/24 00:33:57;;;;;;;8.30;7.47;;;;;;;15.37;93.71;101814.50;1043582;28;20457;-81
2022/07/24 00:34:28;;;;;;;7.90;6.90;;;;;;;15.39;94.04;101812.41;1040531;28;20037;-80
2022/07/24 00:35:00;;;;;;;7.07;6.45;;;;;;;15.39;93.81;101812.41;1049978;28;20451;-81
2022/07/24 00:35:32;;;;;;;10.82;7.20;;;;;;;15.40;93.61;101808.66;1044356;28;20353;-81
2022/07/24 00:36:04;;;;;;;9.27;7.00;;;;;;;15.34;94.20;101810.38;1039837;28;20048;-81
2022/07/24 00:36:35;;;;;;;7.43;6.80;;;;;;;15.29;93.86;101809.41;1041138;28;20064;-81
2022/07/24 00:37:07;;;;;;;7.18;6.57;;;;;;;15.29;93.67;101814.75;1040216;28;20042;-81
2022/07/24 00:37:39;;;;;;;7.43;6.22;;;;;;;15.30;93.80;101816.41;1046357;28;20407;-81
2022/07/24 00:38:10;;;;;;;7.72;7.03;;;;;;;15.23;93.96;101811.13;1041736;28;20041;-81
2022/07/24 00:38:42;;;;;;;7.60;6.90;;;;;;;15.19;94.86;101814.47;1047882;28;20406;-82
2022/07/24 00:39:14;;;;;;;13.35;6.43;;;;;;;15.26;93.85;101812.53;1050633;28;20517;-81
2022/07/24 00:39:47;;;;;;;11.43;6.82;;;;;;;15.29;94.08;101812.09;1052045;28;20048;-81
2022/07/24 00:40:19;;;;;;;8.52;7.03;;;;;;;15.26;93.90;101812.53;1054958;28;20035;-81
2022/07/24 00:40:50;;;;;;;8.88;7.00;;;;;;;15.21;94.00;101809.69;1047559;28;20040;-81
2022/07/24 00:41:22;;;;;;;7.22;6.15;;;;;;;15.21;94.64;101810.53;1047573;28;20047;-81
2022/07/24 00:41:54;;;;;;;7.35;6.60;;;;;;;15.19;94.23;101812.59;1052058;28;20040;-81
2022/07/24 00:42:26;;;;;;;6.82;6.22;;;;;;;15.25;94.17;101805.53;1055098;28;20040;-81
2022/07/24 00:42:57;;;;;;;7.80;7.10;;;;;;;15.21;94.57;101810.53;1052298;28;20039;-81
2022/07/24 00:43:29;;;;;;;7.07;6.28;;;;;;;15.22;94.80;101811.34;1052915;28;20393;-81
2022/07/24 00:44:07;;;;;;;6.90;6.13;;;;;;;15.19;95.03;101817.16;1055732;28;20051;-81
2022/07/24 00:44:39;;;;;;;7.15;6.53;;;;;;;15.18;95.12;101815.50;1047543;28;20036;-81
2022/07/24 00:45:11;;;;;;;7.45;6.57;;;;;;;15.19;94.71;101809.09;1049969;28;20048;-81
2022/07/24 00:45:56;;;;;;;5.85;5.35;;;;;;;15.17;94.51;101805.81;1047428;28;20519;-81
2022/07/24 00:46:28;;;;;;;6.90;6.30;;;;;;;15.07;94.73;101809.84;1046299;28;20049;-81
2022/07/24 00:47:00;;;;;;;6.80;6.20;;;;;;;15.10;94.90;101805.91;1047412;28;20040;-81
2022/07/24 00:47:33;;;;;;;7.15;6.20;;;;;;;15.02;95.25;101809.69;1051502;28;20517;-81
2022/07/24 00:48:07;;;;;;;6.93;6.30;;;;;;;15.08;94.90;101806.13;1052899;28;20051;-81
2022/07/24 00:48:40;;;;;;;7.07;5.97;;;;;;;15.11;95.08;101805.69;1056034;28;20036;-81
2022/07/24 00:49:14;;;;;;;7.50;6.32;;;;;;;15.11;95.33;101805.69;1056049;28;20042;-81
2022/07/24 00:49:51;;;;;;;6.40;5.90;;;;;;;14.97;95.12;101804.16;1054147;28;20062;-81
2022/07/24 00:50:24;;;;;;;7.88;6.00;;;;;;;14.97;95.41;101806.03;1051622;28;20044;-81
2022/07/24 00:50:56;;;;;;;9.82;7.20;;;;;;;14.97;95.30;101801.47;1051792;28;21788;-81
2022/07/24 00:51:27;;;;;;;6.88;6.22;;;;;;;14.96;95.02;101802.53;1045240;28;20040;-81
2022/07/24 00:51:59;;;;;;;7.38;6.63;;;;;;;15.01;95.38;101799.97;1044005;28;20088;-81
2022/07/24 00:52:31;;;;;;;6.10;5.60;;;;;;;15.06;95.57;101802.81;1044187;28;20679;-81
2022/07/24 00:53:04;;;;;;;6.07;5.57;;;;;;;15.10;95.37;101801.34;1052680;28;20513;-81
2022/07/24 00:53:35;;;;;;;10.73;6.30;;;;;;;15.10;94.84;101800.53;1047497;28;20139;-81
2022/07/24 00:54:09;;;;;;;7.22;6.53;;;;;;;15.09;95.35;101802.41;1047666;28;20052;-81
2022/07/24 00:54:40;;;;;;;8.57;6.93;;;;;;;15.10;95.08;101800.53;1047928;28;20115;-81
2022/07/24 00:55:12;;;;;;;6.45;5.93;;;;;;;15.11;94.62;101803.00;1044851;28;20075;-81
2022/07/24 00:55:44;;;;;;;7.05;6.40;;;;;;;15.08;95.05;101800.75;1046689;28;20123;-81
2022/07/24 00:56:17;;;;;;;8.15;7.47;;;;;;;15.04;95.12;101802.22;1043755;28;20045;-81
2022/07/24 00:56:51;;;;;;;7.85;6.95;;;;;;;15.02;94.86;101806.16;1046800;28;20052;-81
2022/07/24 00:57:23;;;;;;;7.65;5.75;;;;;;;14.96;95.79;101802.53;1055781;28;20047;-81
2022/07/24 00:57:54;;;;;;;7.43;6.72;;;;;;;14.92;95.54;101795.97;1052934;28;20044;-81
2022/07/24 00:58:26;;;;;;;6.75;6.18;;;;;;;14.87;95.68;101797.66;1047765;28;20041;-81
2022/07/24 00:59:00;;;;;;;6.38;5.88;;;;;;;14.82;95.68;101801.03;1048615;28;20566;-81
2022/07/24 00:59:32;;;;;;;6.60;6.00;;;;;;;14.70;96.26;101800.91;1047333;28;20032;-81
2022/07/24 01:00:06;;;;;;;15.20;7.03;;;;;;;14.60;96.90;101802.44;1046781;28;20045;-81
2022/07/24 01:00:37;;;;;;;6.95;6.35;;;;;;;14.51;97.84;101800.03;1047865;28;20036;-82
2022/07/24 01:01:10;;;;;;;6.85;6.18;;;;;;;14.51;97.55;101791.97;1049196;28;20048;-81
2022/07/24 01:01:42;;;;;;;8.73;6.05;;;;;;;14.56;97.82;101806.63;1052047;28;20036;-81
2022/07/24 01:02:13;;;;;;;13.98;6.55;;;;;;;14.63;98.12;101808.19;1052276;28;20441;-81
2022/07/24 01:02:45;;;;;;;12.20;5.90;;;;;;;14.56;97.71;101802.06;1054213;28;20823;-81
2022/07/24 01:03:17;;;;;;;6.97;6.30;;;;;;;14.64;97.74;101804.47;1047440;28;20044;-81
2022/07/24 01:03:49;;;;;;;6.63;5.90;;;;;;;14.59;97.98;101803.50;1047148;28;20040;-81
2022/07/24 01:04:21;;;;;;;7.47;6.70;;;;;;;14.44;97.79;101804.63;1045123;28;20037;-81
2022/07/24 01:04:53;;;;;;;6.10;5.63;;;;;;;14.50;97.98;101797.56;1051714;28;20039;-81
2022/07/24 01:05:25;;;;;;;6.82;6.22;;;;;;;14.61;97.99;101804.09;1052720;28;20058;-81
2022/07/24 01:05:57;;;;;;;10.25;5.97;;;;;;;14.64;98.30;101798.28;1052387;28;20048;-81
2022/07/24 01:06:28;;;;;;;6.45;5.88;;;;;;;14.62;98.48;101801.19;1051363;28;20039;-81
2022/07/24 01:07:01;;;;;;;6.50;5.97;;;;;;;14.67;97.13;101812.06;1052055;28;20040;-81
2022/07/24 01:07:33;;;;;;;8.32;6.13;;;;;;;14.71;97.37;101799.03;1045872;28;20583;-81
2022/07/24 01:08:04;;;;;;;6.30;5.72;;;;;;;14.75;97.29;101794.88;1047992;28;20044;-81
2022/07/24 01:08:36;;;;;;;8.30;6.40;;;;;;;14.77;96.93;101798.16;1047668;28;20036;-81
2022/07/24 01:09:09;;;;;;;7.07;6.53;;;;;;;14.56;97.04;101794.03;1045044;28;20402;-81
2022/07/24 01:09:40;;;;;;;6.75;6.20;;;;;;;14.45;97.10;101800.06;1047354;28;20044;-81
2022/07/24 01:10:13;;;;;;;7.13;6.43;;;;;;;14.44;97.69;101793.91;1040193;28;20041;-81
2022/07/24 01:10:44;;;;;;;5.80;5.15;;;;;;;14.43;97.86;101799.47;1039475;28;20407;-81
2022/07/24 01:11:16;;;;;;;6.45;5.85;;;;;;;14.43;97.75;101794.94;1047543;28;20482;-81
2022/07/24 01:11:48;;;;;;;7.90;7.13;;;;;;;14.44;98.03;101791.22;1044703;28;20056;-81
2022/07/24 01:12:20;;;;;;;7.47;6.35;;;;;;;14.39;98.73;101799.06;1052621;28;20039;-81
2022/07/24 01:12:52;;;;;;;9.20;5.90;;;;;;;14.29;98.97;101796.06;1054620;28;20039;-81
2022/07/24 01:13:24;;;;;;;6.70;6.20;;;;;;;14.29;98.94;101796.06;1056463;27;20185;-81
2022/07/24 01:13:55;;;;;;;6.85;6.18;;;;;;;14.32;98.99;101808.19;1060546;27;20043;-81
2022/07/24 01:14:27;;;;;;;6.50;5.88;;;;;;;14.30;99.61;101803.06;1055395;28;20039;-81
2022/07/24 01:14:58;;;;;;;6.38;5.78;;;;;;;14.17;98.93;101797.78;1050987;28;20835;-81
2022/07/24 01:15:30;;;;;;;6.93;6.32;;;;;;;14.09;99.74;101790.00;1047939;28;20047;-81
2022/07/24 01:16:02;;;;;;;7.00;6.47;;;;;;;14.08;99.66;101801.75;1047741;28;20106;-81
2022/07/24 01:16:34;;;;;;;7.72;6.63;;;;;;;14.09;100.00;101800.72;1044278;28;20060;-82
2022/07/24 01:17:06;;;;;;;7.22;6.53;;;;;;;14.06;100.00;101796.63;1047246;28;20044;-81
2022/07/24 01:17:40;;;;;;;8.07;6.82;;;;;;;14.07;100.00;101797.44;1046166;28;20498;-81
2022/07/24 01:18:14;;;;;;;5.97;5.40;;;;;;;14.11;100.00;101794.09;1045971;28;20456;-81
2022/07/24 01:18:45;;;;;;;6.88;5.97;;;;;;;14.19;100.00;101795.69;1055946;28;20047;-81
2022/07/24 01:19:17;;;;;;;7.47;6.88;;;;;;;14.12;100.00;101797.59;1049067;28;20041;-81
2022/07/24 01:19:50;;;;;;;7.00;6.40;;;;;;;14.05;100.00;101797.66;1047680;28;20406;-81
2022/07/24 01:20:21;;;;;;;7.10;6.05;;;;;;;13.99;100.00;101795.84;1047199;28;20056;-81
2022/07/24 01:20:55;;;;;;;7.30;6.68;;;;;;;13.99;100.00;101789.66;1043043;28;20052;-81
2022/07/24 01:21:27;;;;;;;6.00;5.05;;;;;;;13.99;100.00;101795.03;1048579;28;20072;-81
2022/07/24 01:21:58;;;;;;;6.70;6.13;;;;;;;14.02;100.00;101794.59;1052120;28;20051;-81
2022/07/24 01:22:30;;;;;;;6.63;6.03;;;;;;;13.89;100.00;101793.63;1052880;28;20047;-81
2022/07/24 01:23:01;;;;;;;6.32;5.72;;;;;;;13.88;100.00;101794.66;1051475;28;20056;-81
2022/07/24 01:23:34;;;;;;;7.30;6.65;;;;;;;13.93;100.00;101796.69;1048203;28;20102;-81
2022/07/24 01:24:05;;;;;;;7.60;6.53;;;;;;;14.01;100.00;101798.31;1048265;28;20041;-81
2022/07/24 01:24:37;;;;;;;6.47;5.78;;;;;;;13.98;100.00;101793.38;1048106;28;20045;-81
2022/07/24 01:25:09;;;;;;;6.30;5.80;;;;;;;14.03;100.00;101797.06;1051790;28;20456;-81
2022/07/24 01:25:41;;;;;;;7.53;6.82;;;;;;;14.13;100.00;101785.84;1047517;28;20047;-81
2022/07/24 01:26:12;;;;;;;10.70;7.03;;;;;;;14.22;100.00;101789.91;1041075;28;20085;-81
2022/07/24 01:26:45;;;;;;;6.93;6.22;;;;;;;14.29;100.00;101795.25;1039784;28;20045;-81
2022/07/24 01:27:16;;;;;;;7.38;6.68;;;;;;;14.28;100.00;101793.59;1048195;28;20040;-81
2022/07/24 01:27:48;;;;;;;6.20;5.70;;;;;;;14.34;100.00;101788.19;1048179;28;20529;-81
2022/07/24 01:28:20;;;;;;;8.10;7.30;;;;;;;14.34;100.00;101787.38;1052145;28;20425;-81
2022/07/24 01:28:51;;;;;;;6.15;5.55;;;;;;;14.31;100.00;101793.97;1053784;28;20044;-81
2022/07/24 01:29:23;;;;;;;7.65;6.53;;;;;;;14.29;99.48;101790.69;1048065;28;20040;-82
2022/07/24 01:29:55;;;;;;;8.43;6.70;;;;;;;14.18;100.00;101780.66;1051690;28;20056;-81
2022/07/24 01:30:26;;;;;;;8.50;6.50;;;;;;;14.21;99.80;101783.72;1048022;28;20047;-81
2022/07/24 01:30:59;;;;;;;6.72;6.13;;;;;;;14.17;99.80;101787.06;1051953;28;20036;-81
2022/07/24 01:31:31;;;;;;;6.57;5.72;;;;;;;14.15;100.00;101783.78;1047470;28;20064;-81
2022/07/24 01:32:02;;;;;;;6.35;5.72;;;;;;;14.10;100.00;101786.28;1045512;28;20049;-81
2022/07/24 01:32:34;;;;;;;8.35;6.30;;;;;;;14.02;99.77;101783.88;1037969;28;20411;-81
2022/07/24 01:33:06;;;;;;;8.13;7.32;;;;;;;14.00;99.84;101780.59;1035480;28;20042;-81
2022/07/24 01:33:37;;;;;;;6.53;5.93;;;;;;;14.10;100.00;101780.94;1042480;28;20041;-81
2022/07/24 01:34:09;;;;;;;6.13;5.55;;;;;;;14.21;100.00;101782.91;1050036;28;20044;-81
2022/07/24 01:34:41;;;;;;;7.10;6.38;;;;;;;14.22;99.88;101784.53;1055857;28;20036;-81
2022/07/24 01:35:12;;;;;;;7.63;6.78;;;;;;;14.30;100.00;101780.81;1054177;28;20044;-81
2022/07/24 01:35:53;;;;;;;6.15;5.60;;;;;;;14.18;100.00;101784.16;1053074;28;20108;-81
2022/07/24 01:36:25;;;;;;;9.68;6.82;;;;;;;14.09;100.00;101781.97;1051764;28;20047;-81
2022/07/24 01:36:57;;;;;;;6.15;5.65;;;;;;;14.13;99.87;101777.81;1048362;28;20056;-81
2022/07/24 01:37:28;;;;;;;6.72;6.00;;;;;;;14.19;99.71;101784.97;1053016;28;20048;-81
2022/07/24 01:38:00;;;;;;;6.32;5.82;;;;;;;14.19;100.00;101784.97;1056224;28;20032;-81
2022/07/24 01:38:32;;;;;;;6.93;6.22;;;;;;;14.25;99.92;101784.13;1048076;28;20581;-81
2022/07/24 01:39:03;;;;;;;7.35;6.65;;;;;;;14.27;99.91;101781.25;1047192;28;20052;-81
2022/07/24 01:39:36;;;;;;;6.00;5.50;;;;;;;14.32;99.92;101781.41;1045681;28;20048;-81
2022/07/24 01:40:08;;;;;;;6.22;5.70;;;;;;;14.33;99.49;101781.19;1050698;28;20397;-81
2022/07/24 01:40:40;;;;;;;7.60;6.47;;;;;;;14.33;100.00;101775.81;1051473;28;20131;-81
2022/07/24 01:41:11;;;;;;;5.72;5.22;;;;;;;14.18;99.80;101778.81;1047536;28;20114;-81
2022/07/24 01:41:43;;;;;;;10.73;6.05;;;;;;;14.17;99.78;101776.34;1044543;28;20048;-81
2022/07/24 01:42:15;;;;;;;6.15;5.45;;;;;;;14.16;100.00;101777.38;1043278;28;20048;-81
2022/07/24 01:42:47;;;;;;;6.82;6.13;;;;;;;14.20;100.00;101783.94;1039768;28;20042;-81
2022/07/24 01:43:18;;;;;;;6.10;5.65;;;;;;;14.09;100.00;101779.28;1039685;28;20045;-81
2022/07/24 01:43:50;;;;;;;7.40;6.70;;;;;;;14.10;100.00;101771.03;1038650;28;20048;-81
2022/07/24 01:44:22;;;;;;;6.65;6.05;;;;;;;14.09;100.00;101781.97;1037683;28;20045;-81
2022/07/24 01:44:53;;;;;;;7.70;6.18;;;;;;;14.06;100.00;101785.91;1043869;28;20049;-81
2022/07/24 01:45:25;;;;;;;7.55;6.85;;;;;;;14.04;100.00;101776.44;1041608;28;20088;-81
2022/07/24 01:45:57;;;;;;;5.95;5.18;;;;;;;14.01;100.00;101776.88;1047709;28;20082;-81
2022/07/24 01:46:28;;;;;;;7.68;6.97;;;;;;;13.93;100.00;101778.75;1036745;28;20136;-81
2022/07/24 01:47:00;;;;;;;6.75;5.90;;;;;;;13.90;100.00;101776.50;1035414;28;20117;-81
2022/07/24 01:47:32;;;;;;;7.32;6.53;;;;;;;13.88;100.00;101777.75;1036036;28;20579;-81
2022/07/24 01:48:04;;;;;;;6.93;6.22;;;;;;;13.91;100.00;101778.16;1041925;28;20049;-81
2022/07/24 01:48:35;;;;;;;7.82;6.85;;;;;;;13.95;100.00;101775.03;1043087;28;20041;-81
2022/07/24 01:49:09;;;;;;;7.85;7.07;;;;;;;13.90;100.00;101779.19;1048115;28;20071;-81
2022/07/24 01:49:42;;;;;;;8.98;7.10;;;;;;;13.93;100.00;101776.06;1045792;28;20144;-81
2022/07/24 01:50:14;;;;;;;8.70;7.07;;;;;;;13.97;100.00;101779.16;1053374;28;20099;-81
2022/07/24 01:50:46;;;;;;;10.52;6.82;;;;;;;13.92;100.00;101773.63;1054524;28;20048;-81
2022/07/24 01:51:17;;;;;;;7.25;6.65;;;;;;;13.97;100.00;101776.50;1048501;28;20037;-81
2022/07/24 01:51:49;;;;;;;7.07;6.47;;;;;;;14.02;100.00;101773.97;1047323;28;20044;-81
2022/07/24 01:52:24;;;;;;;7.32;6.70;;;;;;;14.12;100.00;101779.69;1043873;28;20037;-81
2022/07/24 01:52:57;;;;;;;6.68;6.05;;;;;;;14.13;100.00;101780.50;1046716;28;20059;-81
2022/07/24 01:53:28;;;;;;;7.18;6.47;;;;;;;14.25;100.00;101773.41;1047621;28;20047;-81
2022/07/24 01:54:02;;;;;;;10.13;7.72;;;;;;;14.32;100.00;101779.53;1045328;28;20037;-81
2022/07/24 01:54:34;;;;;;;7.88;7.18;;;;;;;14.33;100.00;101778.50;1045643;28;20120;-82
2022/07/24 01:55:07;;;;;;;7.88;7.07;;;;;;;14.33;100.00;101777.69;1051613;28;20044;-81
2022/07/24 01:55:38;;;;;;;7.07;6.38;;;;;;;14.30;100.00;101770.91;1052355;28;20040;-81
2022/07/24 01:56:10;;;;;;;7.35;6.75;;;;;;;14.26;100.00;101767.03;1052164;28;20073;-81
2022/07/24 01:56:41;;;;;;;9.88;7.20;;;;;;;14.16;100.00;101766.66;1052704;28;20047;-81
2022/07/24 01:57:15;;;;;;;7.88;7.18;;;;;;;14.14;100.00;101771.41;1051702;28;20044;-81
2022/07/24 01:57:50;;;;;;;6.95;6.35;;;;;;;14.06;100.00;101769.00;1052332;28;20052;-81
2022/07/24 01:58:22;;;;;;;7.40;6.57;;;;;;;14.08;100.00;101775.78;1052910;28;20040;-81
2022/07/24 01:58:54;;;;;;;7.25;6.65;;;;;;;14.03;100.00;101769.44;1052670;28;20040;-81
2022/07/24 01:59:26;;;;;;;8.00;6.88;;;;;;;13.99;100.00;101773.59;1052279;28;20051;-81
2022/07/24 01:59:59;;;;;;;7.85;7.22;;;;;;;14.02;100.00;101773.97;1045257;28;20403;-81
2022/07/24 02:00:32;;;;;;;8.90;6.85;;;;;;;13.99;100.00;101770.91;1041050;28;20080;-81
2022/07/24 02:01:04;;;;;;;8.38;7.68;;;;;;;13.94;100.00;101771.53;1042135;28;20049;-81
2022/07/24 02:01:35;;;;;;;7.10;6.50;;;;;;;13.87;100.00;101765.41;1048662;28;20105;-81
2022/07/24 02:02:07;;;;;;;6.93;5.80;;;;;;;13.81;100.00;101769.78;1049044;28;20029;-81
2022/07/24 02:02:40;;;;;;;6.75;6.15;;;;;;;13.86;100.00;101769.94;1049177;28;20045;-81
2022/07/24 02:03:12;;;;;;;7.03;6.38;;;;;;;13.93;100.00;101762.69;1055549;28;20066;-82
2022/07/24 02:03:43;;;;;;;9.13;6.75;;;;;;;13.93;100.00;101765.38;1052937;28;20063;-81
2022/07/24 02:04:15;;;;;;;10.30;7.00;;;;;;;13.90;100.00;101771.16;1053572;28;20127;-81
2022/07/24 02:04:46;;;;;;;6.93;6.32;;;;;;;13.88;100.00;101757.16;1052166;28;20406;-81
2022/07/24 02:05:18;;;;;;;6.80;6.03;;;;;;;13.84;100.00;101769.34;1048232;28;20041;-81
2022/07/24 02:05:51;;;;;;;7.90;7.20;;;;;;;13.80;100.00;101754.75;1043102;28;20170;-81
2022/07/24 02:06:23;;;;;;;7.95;6.78;;;;;;;13.77;100.00;101765.88;1041248;28;20042;-81
2022/07/24 02:06:55;;;;;;;6.88;6.32;;;;;;;13.77;100.00;101760.53;1048291;28;20049;-81
2022/07/24 02:07:26;;;;;;;6.97;6.35;;;;;;;13.79;100.00;101755.78;1049352;28;20036;-82
2022/07/24 02:07:59;;;;;;;7.10;6.50;;;;;;;13.80;100.00;101762.78;1044948;28;20046;-82
2022/07/24 02:08:30;;;;;;;8.82;6.47;;;;;;;13.73;100.00;101759.31;1044558;28;20041;-81
2022/07/24 02:09:02;;;;;;;8.02;7.22;;;;;;;13.76;100.00;101761.56;1044160;28;20048;-81
2022/07/24 02:09:34;;;;;;;7.68;6.53;;;;;;;13.76;100.00;101764.25;1040804;28;20038;-81
2022/07/24 02:10:07;;;;;;;7.75;6.68;;;;;;;13.75;100.00;101759.94;1040261;28;20515;-81
2022/07/24 02:10:39;;;;;;;7.70;7.00;;;;;;;13.80;100.00;101759.28;1045135;28;20267;-82
2022/07/24 02:11:11;;;;;;;7.90;6.38;;;;;;;13.84;100.00;101755.13;1047909;28;20040;-81
2022/07/24 02:11:42;;;;;;;6.75;5.93;;;;;;;13.82;100.00;101760.69;1047211;28;20040;-81
2022/07/24 02:12:14;;;;;;;6.95;6.35;;;;;;;13.79;100.00;101763.81;1043358;28;20541;-81
2022/07/24 02:12:45;;;;;;;7.20;6.38;;;;;;;13.82;100.00;101758.03;1045586;28;20052;-81
2022/07/24 02:13:17;;;;;;;7.25;6.35;;;;;;;13.85;100.00;101762.94;1043997;28;20036;-82
2022/07/24 02:13:49;;;;;;;7.40;6.80;;;;;;;13.75;100.00;101751.06;1048556;28;20095;-82
2022/07/24 02:14:21;;;;;;;7.13;6.47;;;;;;;13.79;100.00;101753.09;1050738;28;20037;-81
2022/07/24 02:14:52;;;;;;;8.23;6.13;;;;;;;13.82;100.00;101758.03;1048958;28;20094;-82
2022/07/24 02:15:25;;;;;;;7.05;6.35;;;;;;;13.69;100.00;101755.41;1050104;28;20106;-81
2022/07/24 02:15:56;;;;;;;7.53;6.53;;;;;;;13.75;100.00;101753.75;1048311;28;20036;-81
2022/07/24 02:16:28;;;;;;;7.35;6.60;;;;;;;13.79;100.00;101758.47;1052237;28;20036;-81
2022/07/24 02:17:00;;;;;;;7.18;6.47;;;;;;;13.80;100.00;101760.09;1052175;28;20078;-81
2022/07/24 02:17:31;;;;;;;8.65;6.95;;;;;;;13.78;100.00;101756.81;1053259;28;20047;-81
2022/07/24 02:18:03;;;;;;;6.97;6.38;;;;;;;13.73;100.00;101747.78;1052154;28;20089;-82
2022/07/24 02:18:35;;;;;;;7.65;6.90;;;;;;;13.73;100.00;101753.97;1045430;28;20043;-82
2022/07/24 02:19:06;;;;;;;7.85;7.10;;;;;;;13.72;100.00;101756.88;1047809;28;20056;-82
2022/07/24 02:19:38;;;;;;;6.53;6.03;;;;;;;13.71;100.00;101761.41;1045846;28;20040;-81
2022/07/24 02:20:10;;;;;;;7.28;6.57;;;;;;;13.71;100.00;101750.69;1042055;28;20075;-82
2022/07/24 02:20:43;;;;;;;6.90;6.30;;;;;;;13.69;100.00;101757.25;1040100;28;20513;-82
2022/07/24 02:21:14;;;;;;;7.10;6.50;;;;;;;13.69;100.00;101758.09;1041334;28;20054;-81
2022/07/24 02:21:46;;;;;;;7.28;6.68;;;;;;;13.71;100.00;101750.69;1044605;28;20045;-81
2022/07/24 02:22:17;;;;;;;10.88;6.60;;;;;;;13.78;100.00;101753.31;1042845;28;20056;-81
2022/07/24 02:22:50;;;;;;;8.18;7.40;;;;;;;13.85;100.00;101760.28;1039262;28;20042;-81
2022/07/24 02:23:21;;;;;;;7.88;7.07;;;;;;;13.78;100.00;101756.81;1043541;28;20033;-81
2022/07/24 02:23:53;;;;;;;7.60;6.90;;;;;;;13.76;100.00;101752.72;1048941;28;20115;-81
2022/07/24 02:24:25;;;;;;;6.82;6.22;;;;;;;13.74;100.00;101750.25;1047641;28;20044;-81
2022/07/24 02:24:56;;;;;;;7.85;6.68;;;;;;;13.67;100.00;101749.44;1048462;28;20410;-81
2022/07/24 02:25:28;;;;;;;6.93;6.30;;;;;;;13.75;100.00;101751.06;1051135;28;20047;-81
2022/07/24 02:26:00;;;;;;;6.53;5.90;;;;;;;13.70;100.00;101746.38;1048816;28;20478;-81
2022/07/24 02:26:31;;;;;;;7.35;6.75;;;;;;;13.65;100.00;101753.38;1052042;28;20044;-81
2022/07/24 02:27:03;;;;;;;7.22;6.05;;;;;;;13.62;100.00;101749.28;1054951;28;20047;-81
2022/07/24 02:27:35;;;;;;;8.23;7.40;;;;;;;13.64;100.00;101749.88;1052735;28;20485;-81
2022/07/24 02:28:06;;;;;;;7.85;6.63;;;;;;;13.64;100.00;101747.19;1056313;28;20039;-81
2022/07/24 02:28:38;;;;;;;8.02;7.30;;;;;;;13.67;100.00;101754.81;1050632;28;20036;-81